Time;durP1;ratioP1;P1;durP2;ratioP2;P2;SDS_P1;SDS_P2;PMS_P1;PMS_P2;Temp;Humidity;BMP_temperature;BMP_pressure;BME280_temperature;BME280_humidity;BME280_pressure;Samples;Min_cycle;Max_cycle;Signal;HPM_P1;HPM_P2
2022/03/20 00:02:03;;;;;;;9.00;5.25;;;4.50;99.90;;;;;;6267928;22;20090;-61
2022/03/20 00:04:29;;;;;;;7.97;4.25;;;4.50;99.90;;;;;;6240744;22;20557;-61
2022/03/20 00:06:55;;;;;;;11.63;5.43;;;4.50;99.90;;;;;;6268300;22;20051;-61
2022/03/20 00:09:21;;;;;;;9.48;4.68;;;4.40;99.90;;;;;;6240024;22;20019;-58
2022/03/20 00:11:47;;;;;;;9.30;6.28;;;4.40;99.90;;;;;;6268192;22;20019;-59
2022/03/20 00:14:12;;;;;;;12.20;6.03;;;4.40;99.90;;;;;;6267266;22;20336;-59
2022/03/20 00:16:38;;;;;;;7.65;5.20;;;4.50;99.90;;;;;;6267779;22;20019;-58
2022/03/20 00:19:05;;;;;;;10.82;5.13;;;4.30;99.90;;;;;;6268169;22;20358;-58
2022/03/20 00:21:31;;;;;;;11.18;5.15;;;4.30;99.90;;;;;;6268689;22;20024;-59
2022/03/20 00:23:57;;;;;;;7.47;5.00;;;4.30;99.90;;;;;;6267826;22;20046;-59
2022/03/20 00:26:23;;;;;;;9.30;4.97;;;4.30;99.90;;;;;;6268206;22;20020;-58
2022/03/20 00:28:48;;;;;;;11.75;4.78;;;4.30;99.90;;;;;;6268653;22;20367;-59
2022/03/20 00:31:14;;;;;;;7.30;4.25;;;4.20;99.90;;;;;;6268042;22;20019;-59
2022/03/20 00:33:40;;;;;;;12.55;5.05;;;4.20;99.90;;;;;;6241447;22;20438;-59
2022/03/20 00:36:05;;;;;;;9.52;5.10;;;4.20;99.90;;;;;;6268970;22;20016;-59
2022/03/20 00:38:31;;;;;;;11.30;4.75;;;4.20;99.90;;;;;;6269104;22;20078;-59
2022/03/20 00:40:58;;;;;;;8.65;5.00;;;4.20;99.90;;;;;;6268208;22;20019;-58
2022/03/20 00:43:23;;;;;;;14.25;5.47;;;4.10;99.90;;;;;;6268878;22;20202;-59
2022/03/20 00:45:49;;;;;;;10.57;5.10;;;4.10;99.90;;;;;;6268336;22;20384;-59
2022/03/20 00:48:15;;;;;;;8.63;5.78;;;4.10;99.90;;;;;;6268810;22;20015;-58
2022/03/20 00:50:40;;;;;;;12.93;5.18;;;4.10;99.90;;;;;;6269034;22;20089;-58
2022/03/20 00:53:06;;;;;;;10.20;5.80;;;4.00;99.90;;;;;;6269087;22;20330;-59
2022/03/20 00:55:32;;;;;;;8.63;5.30;;;4.00;99.90;;;;;;6268482;22;20330;-58
2022/03/20 00:57:58;;;;;;;10.85;4.85;;;3.90;99.90;;;;;;6240847;22;20108;-63
2022/03/20 01:00:24;;;;;;;9.88;4.80;;;3.90;99.90;;;;;;6268473;22;20448;-59
2022/03/20 01:02:49;;;;;;;8.63;4.95;;;3.90;99.90;;;;;;6268496;22;20027;-58
2022/03/20 01:05:15;;;;;;;8.98;4.55;;;3.90;99.90;;;;;;6268679;22;20092;-61
2022/03/20 01:07:43;;;;;;;11.82;5.97;;;4.50;99.90;;;;;;6269105;22;20435;-68
2022/03/20 01:10:09;;;;;;;10.38;5.28;;;3.80;99.90;;;;;;6240939;22;20024;-61
2022/03/20 01:12:37;;;;;;;9.75;5.43;;;3.80;99.90;;;;;;6267906;22;20454;-58
2022/03/20 01:15:06;;;;;;;15.10;6.65;;;3.80;99.90;;;;;;6268804;22;20055;-59
2022/03/20 01:17:32;;;;;;;8.30;5.07;;;3.70;99.90;;;;;;6241837;22;20020;-69
2022/03/20 01:19:57;;;;;;;8.57;5.57;;;3.70;99.90;;;;;;6269010;22;20022;-58
2022/03/20 01:22:23;;;;;;;9.02;4.53;;;3.60;99.90;;;;;;6215902;22;20444;-61
2022/03/20 01:24:49;;;;;;;13.18;5.22;;;3.60;99.90;;;;;;6269801;22;20031;-66
2022/03/20 01:27:16;;;;;;;9.25;4.78;;;3.60;99.90;;;;;;6270494;22;20015;-59
2022/03/20 01:29:42;;;;;;;11.00;4.65;;;3.20;99.90;;;;;;6270438;22;20026;-59
2022/03/20 01:32:10;;;;;;;9.82;5.38;;;3.60;99.90;;;;;;6270793;22;20012;-61
2022/03/20 01:34:36;;;;;;;11.07;5.13;;;3.60;99.90;;;;;;6270064;22;20086;-58
2022/03/20 01:37:02;;;;;;;10.15;4.30;;;3.80;99.90;;;;;;6270284;22;20397;-58
2022/03/20 01:39:28;;;;;;;9.85;5.45;;;3.50;99.90;;;;;;6243081;22;20050;-61
2022/03/20 01:41:54;;;;;;;13.20;5.35;;;3.50;99.90;;;;;;6238674;22;20027;-58
2022/03/20 01:44:20;;;;;;;9.63;5.50;;;2.60;99.90;;;;;;6270090;22;20015;-59
2022/03/20 01:46:46;;;;;;;9.82;5.28;;;3.90;99.90;;;;;;6269599;22;20099;-59
2022/03/20 01:49:12;;;;;;;9.95;5.22;;;3.40;99.90;;;;;;6270181;22;20385;-70
2022/03/20 01:54:22;;;;;;;10.85;5.55;;;3.30;99.90;;;;;;6269315;22;20468;-61
2022/03/20 01:56:49;;;;;;;10.13;7.00;;;3.30;99.90;;;;;;6269936;22;20024;-67
2022/03/20 01:59:16;;;;;;;11.25;5.60;;;3.30;99.90;;;;;;6242397;22;20035;-59
2022/03/20 02:01:43;;;;;;;11.88;5.53;;;3.30;99.90;;;;;;6269496;22;20015;-62
2022/03/20 02:04:15;;;;;;;9.35;5.45;;;3.20;99.90;;;;;;6269813;22;20024;-61
2022/03/20 02:06:42;;;;;;;12.82;6.40;;;3.20;99.90;;;;;;6242642;22;20332;-58
2022/03/20 02:09:09;;;;;;;10.65;5.43;;;3.20;99.90;;;;;;6269819;22;20023;-73
2022/03/20 02:11:34;;;;;;;18.70;6.78;;;3.10;99.90;;;;;;6269741;22;20022;-59
2022/03/20 02:14:00;;;;;;;10.73;5.75;;;3.10;99.90;;;;;;6269359;22;20019;-59
2022/03/20 02:16:26;;;;;;;12.32;6.15;;;3.10;99.90;;;;;;6269415;22;20099;-58
2022/03/20 02:18:52;;;;;;;15.43;5.80;;;3.10;99.90;;;;;;6269533;22;20058;-58
2022/03/20 02:21:42;;;;;;;12.65;6.60;;;3.00;99.90;;;;;;6269485;22;20016;-58
2022/03/20 02:24:27;;;;;;;17.27;7.13;;;3.00;99.90;;;;;;6268666;22;20388;-58
2022/03/20 02:27:04;;;;;;;13.27;6.97;;;3.00;99.90;;;;;;6269798;22;20095;-59
2022/03/20 02:29:30;;;;;;;11.13;6.18;;;3.00;99.90;;;;;;6269910;22;20022;-58
2022/03/20 02:31:58;;;;;;;11.93;6.53;;;3.00;99.90;;;;;;6269437;22;20031;-58
2022/03/20 02:34:25;;;;;;;14.60;7.85;;;3.10;99.90;;;;;;6268875;22;20019;-58
2022/03/20 02:36:51;;;;;;;11.75;6.50;;;2.90;99.90;;;;;;6269473;22;20019;-58
2022/03/20 02:39:16;;;;;;;15.73;7.03;;;2.90;99.90;;;;;;6269459;22;20037;-68
2022/03/20 02:41:44;;;;;;;11.07;6.43;;;2.90;99.90;;;;;;6269168;22;20019;-61
2022/03/20 02:44:10;;;;;;;12.57;7.15;;;2.90;99.90;;;;;;6269562;22;20334;-76
2022/03/20 02:46:37;;;;;;;11.98;7.00;;;2.90;99.90;;;;;;6268604;22;20012;-72
2022/03/20 02:49:09;;;;;;;17.40;8.45;;;2.90;99.90;;;;;;6241586;22;20024;-61
2022/03/20 02:51:36;;;;;;;11.68;7.53;;;2.90;99.90;;;;;;6266856;22;20034;-68
2022/03/20 02:54:05;;;;;;;11.73;6.95;;;2.90;99.90;;;;;;6268524;22;20090;-70
2022/03/20 02:56:32;;;;;;;14.43;7.90;;;2.90;99.90;;;;;;6269309;22;20041;-70
2022/03/20 02:58:58;;;;;;;16.85;8.15;;;2.80;99.90;;;;;;6268656;22;20435;-74
2022/03/20 03:01:24;;;;;;;14.65;7.93;;;2.80;99.90;;;;;;6241438;22;20023;-66
2022/03/20 03:03:53;;;;;;;17.77;8.23;;;2.80;99.90;;;;;;6268975;22;20346;-62
2022/03/20 03:06:19;;;;;;;13.15;7.40;;;2.50;99.90;;;;;;6240991;22;20034;-61
2022/03/20 03:11:29;;;;;;;;;;;2.70;99.90;;;;;;6269762;22;20031;-61
2022/03/20 03:13:55;;;;;;;13.73;7.70;;;2.70;99.90;;;;;;6269277;22;19919;-61
2022/03/20 03:16:21;;;;;;;12.65;7.38;;;2.70;99.90;;;;;;6268384;22;20030;-61
2022/03/20 03:18:47;;;;;;;12.90;6.82;;;2.60;99.90;;;;;;6268596;22;20074;-62
2022/03/20 03:21:17;;;;;;;14.68;8.20;;;2.60;99.90;;;;;;6241468;22;20015;-62
2022/03/20 03:23:44;;;;;;;14.27;8.55;;;2.60;99.90;;;;;;6268819;22;20098;-61
2022/03/20 03:26:10;;;;;;;12.55;8.77;;;2.60;99.90;;;;;;6268973;22;20369;-70
2022/03/20 03:28:37;;;;;;;12.45;7.75;;;2.50;99.90;;;;;;6268974;22;20027;-60
2022/03/20 03:31:05;;;;;;;17.33;8.80;;;2.60;99.90;;;;;;6269157;22;20054;-59
2022/03/20 03:33:31;;;;;;;17.50;8.77;;;2.60;99.90;;;;;;6268575;22;20095;-58
2022/03/20 03:35:57;;;;;;;13.60;8.88;;;2.50;99.90;;;;;;6268400;22;20019;-63
2022/03/20 03:38:30;;;;;;;15.90;7.65;;;2.50;99.90;;;;;;6268896;22;20023;-62
2022/03/20 03:40:56;;;;;;;16.25;9.18;;;2.50;99.90;;;;;;6268714;22;20069;-61
2022/03/20 03:43:23;;;;;;;13.10;7.93;;;2.50;99.90;;;;;;6268684;22;20624;-59
2022/03/20 03:45:49;;;;;;;14.27;9.23;;;2.50;99.90;;;;;;6264883;22;20458;-59
2022/03/20 03:48:16;;;;;;;20.77;8.80;;;2.50;99.90;;;;;;6267991;22;20403;-58
2022/03/20 03:50:45;;;;;;;12.15;7.93;;;2.50;99.90;;;;;;6268020;22;20022;-61
2022/03/20 03:53:11;;;;;;;20.80;10.57;;;2.40;99.90;;;;;;6267230;22;20022;-69
2022/03/20 03:55:38;;;;;;;16.92;9.13;;;2.40;99.90;;;;;;6268020;22;20085;-68
2022/03/20 03:58:04;;;;;;;16.65;8.32;;;2.40;99.90;;;;;;6241396;22;20024;-67
2022/03/20 04:00:32;;;;;;;20.67;9.13;;;2.40;99.90;;;;;;6268731;22;20016;-58
2022/03/20 04:02:59;;;;;;;22.05;10.40;;;2.40;99.90;;;;;;6267563;22;20015;-58
2022/03/20 04:05:25;;;;;;;16.33;8.68;;;2.40;99.90;;;;;;6267745;22;20498;-60
2022/03/20 04:07:51;;;;;;;16.40;9.02;;;2.40;99.90;;;;;;6268135;22;20377;-59
2022/03/20 04:10:17;;;;;;;12.43;9.07;;;2.40;99.90;;;;;;6268610;22;20347;-59
2022/03/20 04:12:44;;;;;;;15.57;10.48;;;2.30;99.90;;;;;;6240988;22;20015;-58
2022/03/20 04:15:10;;;;;;;17.75;9.15;;;2.30;99.90;;;;;;6268453;22;20086;-59
2022/03/20 04:17:37;;;;;;;18.27;9.73;;;2.30;99.90;;;;;;6268596;22;20057;-60
2022/03/20 04:20:04;;;;;;;15.98;9.48;;;2.30;99.90;;;;;;6268292;22;20122;-58
2022/03/20 04:22:30;;;;;;;14.93;9.38;;;2.30;99.90;;;;;;6268778;22;20027;-58
2022/03/20 04:24:56;;;;;;;15.50;9.93;;;2.20;99.90;;;;;;6267626;22;20316;-59
2022/03/20 04:27:22;;;;;;;21.48;10.00;;;2.30;99.90;;;;;;6268328;22;20026;-59
2022/03/20 04:29:48;;;;;;;20.52;10.48;;;2.20;99.90;;;;;;6268914;22;20024;-58
2022/03/20 04:32:14;;;;;;;18.25;9.95;;;2.30;99.90;;;;;;6268074;22;20536;-59
2022/03/20 04:34:41;;;;;;;20.42;9.73;;;2.30;99.90;;;;;;6241321;22;20525;-59
2022/03/20 04:37:08;;;;;;;15.75;9.73;;;2.30;99.90;;;;;;6268636;22;20020;-61
2022/03/20 04:39:35;;;;;;;15.68;9.50;;;2.20;99.90;;;;;;6268633;22;20020;-59
2022/03/20 04:42:01;;;;;;;20.23;9.85;;;2.20;99.90;;;;;;6268722;22;20059;-67
2022/03/20 04:44:27;;;;;;;23.08;11.40;;;2.20;99.90;;;;;;6268625;22;20073;-62
2022/03/20 04:46:53;;;;;;;16.60;10.50;;;2.20;99.90;;;;;;6241075;22;20630;-74
2022/03/20 05:00:27;;;;;;;19.20;10.77;;;2.20;99.90;;;;;;6270385;22;20069;-59
2022/03/20 05:02:53;;;;;;;19.10;11.20;;;2.10;99.90;;;;;;6270862;22;20401;-59
2022/03/20 05:05:18;;;;;;;15.68;10.98;;;2.10;99.90;;;;;;6270094;22;20038;-58
2022/03/20 05:07:44;;;;;;;18.02;11.45;;;2.60;99.90;;;;;;6269765;22;20084;-58
2022/03/20 05:15:40;;;;;;;19.15;10.68;;;2.10;99.90;;;;;;6270175;22;20055;-59
2022/03/20 05:18:07;;;;;;;21.27;11.10;;;2.10;99.90;;;;;;6270636;22;20532;-61
2022/03/20 05:20:33;;;;;;;20.20;11.52;;;2.20;99.90;;;;;;6269969;22;20015;-61
2022/03/20 05:23:00;;;;;;;20.83;12.68;;;2.10;99.90;;;;;;6270540;22;20062;-58
2022/03/20 05:25:30;;;;;;;18.85;10.90;;;2.10;99.90;;;;;;6270318;22;20505;-61
2022/03/20 05:27:56;;;;;;;16.95;11.32;;;2.10;99.90;;;;;;6269995;22;20106;-59
2022/03/20 05:30:23;;;;;;;20.63;11.65;;;2.10;99.90;;;;;;6242714;22;20046;-59
2022/03/20 05:32:49;;;;;;;16.17;10.88;;;2.10;99.90;;;;;;6270330;22;20028;-67
2022/03/20 05:35:18;;;;;;;21.92;12.02;;;2.10;99.90;;;;;;6269386;22;20043;-62
2022/03/20 05:37:44;;;;;;;22.25;12.50;;;2.10;99.90;;;;;;6270409;22;20019;-65
2022/03/20 05:40:11;;;;;;;19.30;11.30;;;2.10;99.90;;;;;;6268263;22;20450;-58
2022/03/20 05:42:36;;;;;;;23.95;13.50;;;2.10;99.90;;;;;;6269809;22;20026;-58
2022/03/20 05:45:06;;;;;;;23.98;10.98;;;2.10;99.90;;;;;;6269569;22;20334;-58
2022/03/20 05:47:32;;;;;;;19.77;11.50;;;2.10;99.90;;;;;;6270069;22;20011;-58
2022/03/20 05:50:01;;;;;;;24.05;11.98;;;2.10;99.90;;;;;;6270330;22;20019;-58
2022/03/20 05:52:29;;;;;;;19.30;12.27;;;2.10;99.90;;;;;;6242350;22;20019;-58
2022/03/20 05:54:55;;;;;;;21.23;11.32;;;2.80;99.90;;;;;;6269929;22;20020;-60
2022/03/20 06:00:06;;;;;;;20.80;12.30;;;2.10;99.90;;;;;;6270505;22;20020;-58
2022/03/20 06:02:31;;;;;;;19.40;11.82;;;2.10;99.90;;;;;;6269895;22;20023;-63
2022/03/20 06:04:57;;;;;;;24.20;13.48;;;2.10;99.90;;;;;;6269800;22;20460;-61
2022/03/20 06:07:23;;;;;;;21.58;11.77;;;2.10;99.90;;;;;;6265918;22;20022;-58
2022/03/20 06:09:48;;;;;;;18.02;11.80;;;2.10;99.90;;;;;;6269520;22;20020;-58
2022/03/20 06:12:14;;;;;;;21.15;11.73;;;2.20;99.90;;;;;;6268807;22;20019;-59
2022/03/20 06:14:40;;;;;;;23.13;12.05;;;2.20;99.90;;;;;;6269809;22;20074;-59
2022/03/20 06:17:09;;;;;;;21.63;11.73;;;2.20;99.90;;;;;;6269506;22;20019;-58
2022/03/20 06:19:36;;;;;;;20.40;12.43;;;2.30;99.90;;;;;;6269882;22;20019;-59
2022/03/20 06:22:02;;;;;;;21.73;11.68;;;2.90;99.90;;;;;;6242525;22;20081;-58
2022/03/20 06:24:28;;;;;;;18.52;12.15;;;2.30;99.90;;;;;;6268743;22;20019;-58
2022/03/20 06:26:54;;;;;;;19.17;11.43;;;2.40;99.90;;;;;;6269602;22;20221;-58
2022/03/20 06:29:19;;;;;;;22.17;12.23;;;2.50;99.90;;;;;;6269983;22;20338;-58
2022/03/20 06:31:48;;;;;;;20.05;12.95;;;2.50;99.90;;;;;;6269707;22;20027;-60
2022/03/20 06:34:14;;;;;;;17.65;11.45;;;2.60;99.90;;;;;;6241582;22;20492;-59
2022/03/20 06:36:40;;;;;;;21.05;12.52;;;2.70;99.90;;;;;;6269747;22;20015;-60
2022/03/20 06:39:06;;;;;;;22.42;12.43;;;2.70;99.90;;;;;;6268591;22;20114;-58
2022/03/20 06:41:31;;;;;;;19.10;11.95;;;2.80;99.90;;;;;;6269228;22;20028;-58
2022/03/20 06:43:57;;;;;;;21.85;14.30;;;2.90;99.90;;;;;;6269401;22;20019;-75
2022/03/20 06:46:22;;;;;;;22.42;13.38;;;3.00;99.90;;;;;;6269363;22;20015;-58
2022/03/20 06:48:48;;;;;;;25.58;12.75;;;3.00;99.90;;;;;;6269519;22;20035;-65
2022/03/20 06:51:17;;;;;;;19.88;13.27;;;3.20;99.90;;;;;;6269647;22;20319;-70
2022/03/20 06:53:42;;;;;;;18.77;12.25;;;3.30;99.90;;;;;;6268649;22;20477;-58
2022/03/20 06:56:08;;;;;;;20.85;12.32;;;3.40;99.90;;;;;;6268681;22;20015;-66
2022/03/20 06:58:37;;;;;;;24.52;12.32;;;3.50;99.90;;;;;;6269743;22;20023;-59
2022/03/20 07:01:03;;;;;;;22.08;12.75;;;3.60;99.90;;;;;;6269373;22;20016;-64
2022/03/20 07:03:28;;;;;;;22.42;13.55;;;3.80;99.90;;;;;;6268574;22;20032;-58
2022/03/20 07:05:54;;;;;;;18.20;11.73;;;3.90;99.90;;;;;;6269265;22;20065;-65
2022/03/20 07:08:20;;;;;;;20.25;11.85;;;4.20;99.90;;;;;;6269115;22;20024;-63
2022/03/20 07:10:46;;;;;;;18.83;11.90;;;4.20;99.90;;;;;;6268921;22;20026;-61
2022/03/20 07:15:57;;;;;;;21.05;12.57;;;3.70;99.90;;;;;;6268948;22;20087;-61
2022/03/20 07:18:23;;;;;;;21.75;12.02;;;4.70;99.90;;;;;;6240519;22;20015;-60
2022/03/20 07:20:50;;;;;;;19.25;12.05;;;4.80;99.90;;;;;;6267703;22;20397;-62
2022/03/20 07:23:16;;;;;;;22.30;13.07;;;5.40;99.90;;;;;;6268583;22;20023;-61
2022/03/20 07:31:13;;;;;;;20.83;11.73;;;6.30;99.90;;;;;;6268459;22;20450;-58
2022/03/20 07:33:42;;;;;;;18.63;11.45;;;5.60;99.90;;;;;;6268626;22;20069;-59
2022/03/20 07:36:09;;;;;;;20.58;12.50;;;5.70;99.90;;;;;;6267557;22;20050;-59
2022/03/20 07:38:35;;;;;;;19.98;12.20;;;5.80;99.90;;;;;;6238243;22;20336;-59
2022/03/20 07:41:01;;;;;;;18.73;11.85;;;6.00;99.90;;;;;;6267425;22;20023;-61
2022/03/20 07:43:26;;;;;;;20.92;12.10;;;5.90;99.90;;;;;;6267149;22;20023;-63
2022/03/20 07:45:52;;;;;;;20.40;11.07;;;4.70;99.90;;;;;;6266547;22;20051;-59
2022/03/20 07:48:21;;;;;;;17.48;12.35;;;6.10;99.90;;;;;;6267709;22;20016;-63
2022/03/20 07:50:49;;;;;;;18.20;11.80;;;6.20;99.90;;;;;;6266793;22;20089;-59
2022/03/20 07:53:17;;;;;;;19.88;11.85;;;6.10;99.90;;;;;;6266105;22;20118;-58
2022/03/20 07:55:43;;;;;;;16.45;11.55;;;6.30;99.90;;;;;;6262306;22;20073;-58
2022/03/20 07:58:09;;;;;;;18.25;11.63;;;6.60;99.90;;;;;;6239552;22;20451;-58
2022/03/20 08:00:38;;;;;;;20.92;12.50;;;6.90;99.90;;;;;;6267077;22;20316;-60
2022/03/20 08:03:05;;;;;;;19.60;11.77;;;7.10;99.90;;;;;;6266697;22;20621;-70
2022/03/20 08:05:30;;;;;;;23.38;11.68;;;7.30;99.90;;;;;;6265426;22;20330;-64
2022/03/20 08:07:56;;;;;;;20.98;11.93;;;7.50;99.90;;;;;;6266408;22;20482;-60
2022/03/20 08:10:22;;;;;;;20.92;13.32;;;7.70;99.90;;;;;;6267674;22;20024;-62
2022/03/20 08:12:48;;;;;;;21.73;12.75;;;7.90;99.90;;;;;;6268150;22;20518;-59
2022/03/20 08:15:16;;;;;;;21.23;12.45;;;8.00;99.90;;;;;;6263980;22;20016;-58
2022/03/20 08:17:47;;;;;;;21.85;11.90;;;8.20;99.90;;;;;;6267544;22;20020;-59
2022/03/20 08:20:14;;;;;;;17.25;12.23;;;8.40;99.90;;;;;;6267912;22;20380;-59
2022/03/20 08:22:40;;;;;;;19.75;12.15;;;8.60;99.90;;;;;;6267641;22;20370;-58
2022/03/20 08:25:06;;;;;;;23.45;13.20;;;8.70;99.90;;;;;;6267807;22;20334;-59
2022/03/20 08:27:49;;;;;;;19.42;13.77;;;8.80;99.90;;;;;;6267619;22;20541;-58
2022/03/20 08:30:17;;;;;;;18.63;12.10;;;9.10;99.90;;;;;;6267983;22;20019;-59
2022/03/20 08:32:44;;;;;;;18.05;12.32;;;9.20;99.90;;;;;;6268480;22;20096;-59
2022/03/20 08:35:14;;;;;;;19.70;13.65;;;9.30;99.90;;;;;;6269689;22;20027;-59
2022/03/20 08:37:43;;;;;;;24.88;14.63;;;9.30;99.90;;;;;;6261229;22;20169;-59
2022/03/20 08:40:15;;;;;;;25.92;16.23;;;9.50;99.90;;;;;;6237393;22;20102;-59
2022/03/20 08:42:43;;;;;;;25.08;15.77;;;9.60;99.90;;;;;;6264097;22;20028;-59
2022/03/20 08:45:09;;;;;;;20.63;13.77;;;9.80;99.90;;;;;;6261409;22;20371;-59
2022/03/20 08:47:36;;;;;;;17.65;12.52;;;10.00;99.90;;;;;;6261686;22;20012;-58
2022/03/20 08:50:01;;;;;;;18.67;12.30;;;10.30;99.90;;;;;;6263311;22;20031;-59
2022/03/20 08:52:27;;;;;;;20.30;12.65;;;10.40;99.90;;;;;;6262769;22;20023;-58
2022/03/20 08:54:52;;;;;;;20.45;12.95;;;10.60;99.90;;;;;;6263308;22;20020;-59
2022/03/20 08:57:19;;;;;;;20.08;12.63;;;10.80;99.90;;;;;;6262876;22;20026;-58
2022/03/20 08:59:44;;;;;;;19.05;12.30;;;11.10;99.90;;;;;;6264779;22;20015;-58
2022/03/20 09:02:10;;;;;;;22.75;14.25;;;11.40;99.90;;;;;;6264496;22;20034;-59
2022/03/20 09:04:36;;;;;;;19.27;13.20;;;11.60;99.90;;;;;;6263744;22;20363;-60
2022/03/20 09:07:02;;;;;;;19.80;13.55;;;11.50;99.90;;;;;;6264179;22;20449;-58
2022/03/20 09:09:27;;;;;;;21.48;13.23;;;11.70;99.40;;;;;;6265128;22;20560;-58
2022/03/20 09:11:53;;;;;;;17.20;13.43;;;11.90;99.50;;;;;;6265994;22;20065;-61
2022/03/20 09:14:19;;;;;;;19.70;13.43;;;11.90;99.20;;;;;;6265688;22;20085;-59
2022/03/20 09:19:29;;;;;;;22.27;14.02;;;11.70;99.00;;;;;;6266200;22;20089;-59
2022/03/20 09:21:55;;;;;;;21.35;14.55;;;11.90;98.70;;;;;;6265656;22;20054;-59
2022/03/20 09:24:20;;;;;;;20.60;13.35;;;12.30;98.60;;;;;;6265439;22;20478;-59
2022/03/20 09:26:46;;;;;;;24.67;15.40;;;12.40;98.00;;;;;;6265688;22;20020;-59
2022/03/20 09:29:14;;;;;;;21.02;13.95;;;12.60;97.70;;;;;;6264771;22;20094;-57
2022/03/20 09:31:39;;;;;;;25.30;15.00;;;12.70;97.10;;;;;;6265312;22;20027;-56
2022/03/20 09:34:05;;;;;;;25.38;13.35;;;12.90;97.20;;;;;;6265220;22;20077;-57
2022/03/20 09:36:31;;;;;;;24.88;15.45;;;12.90;96.90;;;;;;6265207;22;20823;-57
2022/03/20 09:38:56;;;;;;;25.33;14.55;;;13.10;96.00;;;;;;6265677;22;20024;-57
2022/03/20 09:41:32;;;;;;;29.85;15.05;;;13.30;94.60;;;;;;6264603;22;20401;-57
2022/03/20 09:43:58;;;;;;;20.20;13.73;;;13.30;95.70;;;;;;6264259;22;20526;-57
2022/03/20 09:46:25;;;;;;;20.13;14.18;;;13.50;96.10;;;;;;6264932;22;20099;-59
2022/03/20 09:48:53;;;;;;;19.88;14.13;;;13.60;95.60;;;;;;6263257;22;20376;-58
2022/03/20 09:51:18;;;;;;;21.77;15.27;;;13.70;95.10;;;;;;6264464;22;20477;-59
2022/03/20 09:53:44;;;;;;;19.88;14.65;;;13.70;95.30;;;;;;6235952;22;20028;-57
2022/03/20 09:56:11;;;;;;;21.33;15.02;;;14.10;93.50;;;;;;6264169;22;20126;-57
2022/03/20 09:58:37;;;;;;;21.08;14.65;;;13.90;94.40;;;;;;6264076;22;20015;-57
2022/03/20 10:01:03;;;;;;;22.75;16.70;;;14.20;94.60;;;;;;6264232;22;20076;-56
2022/03/20 10:03:29;;;;;;;20.15;14.40;;;14.30;93.60;;;;;;6264313;22;20020;-57
2022/03/20 10:06:17;;;;;;;22.60;15.48;;;14.30;93.60;;;;;;6264352;22;20081;-57
2022/03/20 10:08:55;;;;;;;22.98;14.90;;;14.50;92.00;;;;;;6236948;22;20133;-57
2022/03/20 10:11:21;;;;;;;23.10;16.52;;;14.70;91.80;;;;;;6265064;22;20015;-57
2022/03/20 10:14:09;;;;;;;20.70;14.43;;;14.60;93.30;;;;;;6237484;22;20026;-58
2022/03/20 10:16:36;;;;;;;19.35;13.57;;;14.80;91.10;;;;;;6263915;22;20024;-59
2022/03/20 10:19:22;;;;;;;23.92;16.70;;;14.50;91.50;;;;;;6264889;22;20505;-57
2022/03/20 10:21:51;;;;;;;19.13;14.45;;;14.60;92.60;;;;;;6265154;22;20135;-57
2022/03/20 10:24:22;;;;;;;22.95;15.48;;;14.50;92.20;;;;;;6264589;22;20420;-58
2022/03/20 10:27:14;;;;;;;26.13;15.63;;;14.70;92.10;;;;;;6264069;22;20024;-57
2022/03/20 10:29:57;;;;;;;20.95;14.60;;;14.80;90.50;;;;;;6259521;22;20030;-56
2022/03/20 10:32:24;;;;;;;30.15;18.60;;;14.90;91.40;;;;;;6265563;22;20027;-57
2022/03/20 10:34:52;;;;;;;23.05;16.92;;;14.90;91.80;;;;;;6265268;22;20023;-57
2022/03/20 10:37:20;;;;;;;27.55;19.77;;;14.70;91.10;;;;;;6264887;22;20024;-58
2022/03/20 10:39:45;;;;;;;23.63;16.52;;;14.80;90.80;;;;;;6265260;22;20113;-56
2022/03/20 10:42:16;;;;;;;23.35;15.57;;;15.10;91.40;;;;;;6265487;22;20020;-57
2022/03/20 10:44:42;;;;;;;21.52;14.95;;;15.30;90.20;;;;;;6264200;22;20035;-57
2022/03/20 10:47:13;;;;;;;22.73;15.93;;;15.20;91.00;;;;;;6264787;22;20077;-57
2022/03/20 10:50:05;;;;;;;22.55;16.23;;;15.30;90.60;;;;;;6265126;22;20051;-56
2022/03/20 10:52:31;;;;;;;25.58;15.75;;;15.50;88.00;;;;;;6263930;22;20334;-58
2022/03/20 10:54:57;;;;;;;20.90;15.27;;;15.40;90.60;;;;;;6262088;22;20027;-57
2022/03/20 10:57:32;;;;;;;20.00;15.05;;;15.60;90.40;;;;;;6264725;22;20031;-57
2022/03/20 11:00:05;;;;;;;19.73;14.88;;;15.60;89.30;;;;;;6265394;22;20083;-57
2022/03/20 11:02:34;;;;;;;23.60;16.63;;;15.80;88.20;;;;;;6265559;22;20074;-58
2022/03/20 11:05:00;;;;;;;22.77;15.15;;;15.60;89.90;;;;;;6263612;22;20398;-58
2022/03/20 11:07:27;;;;;;;25.27;15.55;;;15.70;88.90;;;;;;6265417;22;20089;-57
2022/03/20 11:09:54;;;;;;;24.45;15.90;;;15.80;89.70;;;;;;6265859;22;20018;-58
2022/03/20 11:12:34;;;;;;;24.33;16.83;;;15.80;89.50;;;;;;6265618;22;20039;-58
2022/03/20 11:15:04;;;;;;;26.88;16.08;;;16.10;87.10;;;;;;6264132;22;20100;-58
2022/03/20 11:17:42;;;;;;;19.63;14.70;;;16.00;88.00;;;;;;6264165;22;20024;-58
2022/03/20 11:20:10;;;;;;;22.88;16.95;;;15.90;86.40;;;;;;6265186;22;20019;-58
2022/03/20 11:22:42;;;;;;;20.95;15.68;;;16.10;88.50;;;;;;6237561;22;20517;-57
2022/03/20 11:25:08;;;;;;;22.33;15.48;;;16.10;87.20;;;;;;6264155;22;20019;-57
2022/03/20 11:27:40;;;;;;;19.45;14.98;;;16.30;87.70;;;;;;6263991;22;20020;-57
2022/03/20 11:30:07;;;;;;;22.17;14.60;;;16.50;86.40;;;;;;6263462;22;20050;-57
2022/03/20 11:32:34;;;;;;;22.38;16.20;;;16.60;85.00;;;;;;6263611;22;20023;-57
2022/03/20 11:35:03;;;;;;;23.50;14.77;;;16.70;86.20;;;;;;6263521;22;20023;-58
2022/03/20 11:37:46;;;;;;;18.38;13.95;;;16.60;85.00;;;;;;6263376;22;20049;-58
2022/03/20 11:40:20;;;;;;;23.42;15.82;;;16.50;82.40;;;;;;6235012;22;20062;-65
2022/03/20 11:42:47;;;;;;;22.77;16.30;;;16.50;84.70;;;;;;6262802;22;20023;-66
2022/03/20 11:45:20;;;;;;;21.65;15.68;;;16.40;85.40;;;;;;6263564;22;20030;-64
2022/03/20 11:47:48;;;;;;;22.50;16.10;;;16.50;82.90;;;;;;6263700;22;20030;-66
2022/03/20 11:50:14;;;;;;;22.30;15.18;;;16.30;83.90;;;;;;6263851;22;20330;-65
2022/03/20 11:53:01;;;;;;;22.50;16.23;;;16.40;85.40;;;;;;6235271;22;20031;-64
2022/03/20 11:55:38;;;;;;;20.77;15.30;;;16.70;81.10;;;;;;6263773;22;20024;-66
2022/03/20 11:58:16;;;;;;;19.23;15.40;;;16.90;83.70;;;;;;6262081;22;20098;-63
2022/03/20 12:00:44;;;;;;;23.95;17.65;;;17.20;81.60;;;;;;6262568;22;20539;-63
2022/03/20 12:03:25;;;;;;;21.77;16.13;;;17.10;83.50;;;;;;6263681;22;20019;-58
2022/03/20 12:06:03;;;;;;;20.77;13.95;;;17.20;81.60;;;;;;6263877;22;20018;-58
2022/03/20 12:09:10;;;;;;;20.75;15.23;;;17.50;80.20;;;;;;6235391;22;20060;-57
2022/03/20 12:12:03;;;;;;;21.63;15.57;;;17.90;80.70;;;;;;6263815;22;20023;-57
2022/03/20 12:14:42;;;;;;;24.60;16.23;;;17.90;80.60;;;;;;6263440;22;20024;-57
2022/03/20 12:17:09;;;;;;;21.20;15.68;;;17.80;82.00;;;;;;6236209;22;20133;-57
2022/03/20 12:19:41;;;;;;;20.10;15.55;;;18.10;81.80;;;;;;6263760;22;20586;-57
2022/03/20 12:22:18;;;;;;;22.08;15.55;;;18.60;80.20;;;;;;6236324;22;20354;-57
2022/03/20 12:24:58;;;;;;;19.73;14.40;;;19.30;79.50;;;;;;6209175;22;1266207;-57
2022/03/20 12:27:23;;;;;;;20.95;14.85;;;19.50;78.10;;;;;;6264345;22;20141;-57
2022/03/20 12:29:49;;;;;;;23.95;15.85;;;19.30;78.60;;;;;;6265522;22;20102;-57
2022/03/20 12:32:16;;;;;;;23.88;16.20;;;20.20;77.60;;;;;;6262272;22;20405;-58
2022/03/20 12:34:43;;;;;;;19.88;14.90;;;20.10;76.20;;;;;;6265556;22;20016;-57
2022/03/20 12:37:31;;;;;;;22.00;16.45;;;19.60;75.80;;;;;;6263901;22;20455;-57
2022/03/20 12:40:07;;;;;;;19.42;14.93;;;19.80;72.50;;;;;;6264210;22;20019;-58
2022/03/20 12:42:43;;;;;;;23.73;15.63;;;20.00;73.70;;;;;;6265412;22;20019;-59
2022/03/20 12:45:15;;;;;;;19.67;14.60;;;20.60;73.00;;;;;;6264507;22;20668;-58
2022/03/20 12:47:59;;;;;;;20.17;14.88;;;21.20;73.20;;;;;;6262868;22;20127;-62
2022/03/20 12:50:34;;;;;;;20.33;15.15;;;21.10;70.80;;;;;;6264628;22;20337;-59
2022/03/20 12:53:07;;;;;;;19.58;14.15;;;22.70;70.50;;;;;;6265592;22;20073;-65
2022/03/20 12:55:34;;;;;;;19.60;14.57;;;23.30;68.90;;;;;;6264809;22;20020;-57
2022/03/20 12:58:00;;;;;;;21.58;15.65;;;23.70;69.20;;;;;;6261952;22;20485;-57
2022/03/20 13:00:32;;;;;;;19.23;14.52;;;24.50;68.50;;;;;;6264595;22;20015;-61
2022/03/20 13:03:12;;;;;;;23.73;15.43;;;24.90;66.50;;;;;;6264602;22;20038;-57
2022/03/20 13:05:53;;;;;;;22.38;15.20;;;24.00;63.70;;;;;;6237608;22;20477;-63
2022/03/20 13:08:31;;;;;;;18.67;13.93;;;24.50;63.50;;;;;;6264197;22;20457;-64
2022/03/20 13:11:00;;;;;;;20.10;14.23;;;24.70;63.50;;;;;;6264210;22;20016;-58
2022/03/20 13:13:34;;;;;;;22.33;14.63;;;24.00;64.00;;;;;;6264973;22;20016;-58
2022/03/20 13:16:01;;;;;;;22.98;14.25;;;22.50;63.80;;;;;;6264484;22;20015;-57
2022/03/20 13:18:30;;;;;;;19.60;14.32;;;21.60;65.30;;;;;;6264552;22;20530;-58
2022/03/20 13:21:03;;;;;;;18.83;14.55;;;20.40;65.70;;;;;;6266025;22;20061;-57